createdAt,value
2018-11-06T00:02:01.616Z,0
2018-11-06T00:03:00.337Z,0
2018-11-06T00:03:58.922Z,0
2018-11-06T00:04:57.473Z,0
2018-11-06T00:05:56.367Z,0
2018-11-06T00:06:54.938Z,0
2018-11-06T00:07:53.485Z,0
2018-11-06T00:08:52.009Z,0
2018-11-06T00:09:50.628Z,0
2018-11-06T00:10:49.128Z,0
2018-11-06T00:11:47.648Z,0
2018-11-06T00:12:46.485Z,0
2018-11-06T00:16:25.192Z,0
2018-11-06T00:17:23.864Z,0
2018-11-06T00:18:22.476Z,0
2018-11-06T00:19:21.036Z,0
2018-11-06T00:20:19.516Z,0
2018-11-06T00:21:18.087Z,0
2018-11-06T00:22:16.617Z,0
2018-11-06T00:23:15.217Z,0
2018-11-06T00:24:13.804Z,0
2018-11-06T00:25:12.485Z,0
2018-11-06T00:26:11.036Z,0
2018-11-06T00:27:09.610Z,0
2018-11-06T00:28:08.302Z,0
2018-11-06T00:31:47.218Z,0
2018-11-06T00:32:45.702Z,0
2018-11-06T00:33:44.249Z,0
2018-11-06T00:34:42.747Z,0
2018-11-06T00:37:05.681Z,0
2018-11-06T00:38:04.259Z,0
2018-11-06T00:39:03.783Z,0
2018-11-06T00:40:02.417Z,0
2018-11-06T00:41:00.991Z,0
2018-11-06T00:41:59.516Z,0
2018-11-06T00:42:58.092Z,0
2018-11-06T00:43:56.654Z,0
2018-11-06T00:44:55.221Z,0
2018-11-06T00:45:53.743Z,0
2018-11-06T00:46:52.258Z,0
2018-11-06T00:49:32.733Z,0
2018-11-06T00:52:13.266Z,0
2018-11-06T00:53:11.879Z,0
2018-11-06T00:54:10.629Z,0
2018-11-06T00:55:09.290Z,0
2018-11-06T00:56:07.972Z,0
2018-11-06T00:57:06.571Z,0
2018-11-06T00:58:05.182Z,0
2018-11-06T00:59:03.776Z,0
2018-11-06T01:00:02.533Z,0
2018-11-06T01:01:01.118Z,0
2018-11-06T01:01:59.802Z,0
2018-11-06T01:02:58.395Z,0
2018-11-06T01:03:57.049Z,0
2018-11-06T01:04:55.576Z,0
2018-11-06T01:05:54.207Z,0
2018-11-06T01:06:52.817Z,0
2018-11-06T01:07:51.373Z,0
2018-11-06T01:08:49.954Z,0
2018-11-06T01:09:48.501Z,0
2018-11-06T01:10:47.176Z,0
2018-11-06T01:11:46.064Z,0
2018-11-06T01:12:44.949Z,0
2018-11-06T01:13:43.506Z,0
2018-11-06T01:16:23.594Z,0
2018-11-06T01:17:22.351Z,0
2018-11-06T01:18:20.988Z,0
2018-11-06T01:19:19.525Z,0
2018-11-06T01:20:18.146Z,0
2018-11-06T01:21:16.731Z,0
2018-11-06T01:22:15.278Z,0
2018-11-06T01:23:13.864Z,0
2018-11-06T01:24:12.470Z,0
2018-11-06T01:25:11.087Z,0
2018-11-06T01:26:09.588Z,0
2018-11-06T01:27:08.195Z,0
2018-11-06T01:28:06.765Z,0
2018-11-06T01:29:05.403Z,0
2018-11-06T01:30:04.079Z,0
2018-11-06T01:31:02.608Z,0
2018-11-06T01:32:01.183Z,0
2018-11-06T01:33:00.028Z,0
2018-11-06T01:44:27.287Z,0
2018-11-06T01:45:26.066Z,0
2018-11-06T01:46:24.593Z,0
2018-11-06T01:47:23.149Z,0
2018-11-06T01:48:21.746Z,0
2018-11-06T01:51:02.028Z,0
2018-11-06T01:52:00.979Z,0
2018-11-06T01:53:01.704Z,0
2018-11-06T01:55:42.182Z,0
2018-11-06T01:56:40.787Z,0
2018-11-06T01:57:39.299Z,0
2018-11-06T01:58:38.842Z,0
2018-11-06T01:59:37.410Z,0
2018-11-06T02:02:43.929Z,0
2018-11-06T02:03:42.700Z,0
2018-11-06T02:04:41.160Z,0
2018-11-06T02:05:39.700Z,0
2018-11-06T02:06:38.414Z,0
2018-11-06T02:07:38.730Z,0
2018-11-06T02:08:37.281Z,0
2018-11-06T02:09:35.877Z,0
2018-11-06T02:10:34.501Z,0
2018-11-06T02:11:33.090Z,0
2018-11-06T02:12:31.710Z,0
2018-11-06T02:13:30.380Z,0
2018-11-06T02:14:28.845Z,0
2018-11-06T02:15:27.397Z,0
2018-11-06T02:16:25.990Z,0
2018-11-06T02:17:24.562Z,0
2018-11-06T02:18:23.083Z,0
2018-11-06T02:19:21.645Z,0
2018-11-06T02:20:20.191Z,0
2018-11-06T02:21:18.703Z,0
2018-11-06T02:22:17.235Z,0
2018-11-06T02:23:15.895Z,0
2018-11-06T02:24:14.678Z,0
2018-11-06T02:25:13.353Z,0
2018-11-06T02:26:12.179Z,0
2018-11-06T02:27:10.754Z,0
2018-11-06T02:28:09.346Z,0
2018-11-06T02:29:07.866Z,0
2018-11-06T02:30:06.450Z,0
2018-11-06T02:32:46.515Z,0
2018-11-06T02:33:45.118Z,0
2018-11-06T02:36:27.116Z,0
2018-11-06T02:37:25.865Z,0
2018-11-06T02:38:24.654Z,0
2018-11-06T02:39:23.230Z,0
2018-11-06T02:40:23.766Z,0
2018-11-06T02:42:46.691Z,0
2018-11-06T02:45:26.789Z,0
2018-11-06T02:46:25.348Z,0
2018-11-06T02:47:24.044Z,0
2018-11-06T02:48:22.574Z,0
2018-11-06T02:49:21.145Z,0
2018-11-06T02:50:19.766Z,0
2018-11-06T02:51:18.357Z,0
2018-11-06T02:52:16.896Z,0
2018-11-06T02:53:15.482Z,0
2018-11-06T02:54:14.285Z,0
2018-11-06T02:55:12.865Z,0
2018-11-06T02:56:11.530Z,0
2018-11-06T02:57:10.130Z,0
2018-11-06T02:58:08.678Z,0
2018-11-06T02:59:07.234Z,0
2018-11-06T03:02:45.963Z,0
2018-11-06T03:03:44.621Z,0
2018-11-06T03:04:43.111Z,0
2018-11-06T03:05:41.796Z,0
2018-11-06T03:06:40.513Z,0
2018-11-06T03:07:39.056Z,0
2018-11-06T03:08:37.663Z,0
2018-11-06T03:09:36.294Z,0
2018-11-06T03:10:34.795Z,0
2018-11-06T03:11:33.322Z,0
2018-11-06T03:12:31.877Z,0
2018-11-06T03:13:30.480Z,0
2018-11-06T03:14:28.996Z,0
2018-11-06T03:15:27.563Z,0
2018-11-06T03:16:26.141Z,0
2018-11-06T03:17:24.772Z,0
2018-11-06T03:18:23.517Z,0
2018-11-06T03:19:22.137Z,0
2018-11-06T03:21:44.810Z,0
2018-11-06T03:22:43.384Z,0
2018-11-06T03:23:41.921Z,0
2018-11-06T03:24:40.618Z,0
2018-11-06T03:25:39.170Z,0
2018-11-06T03:26:38.709Z,0
2018-11-06T03:27:37.262Z,0
2018-11-06T03:28:36.066Z,0
2018-11-06T03:29:34.726Z,0
2018-11-06T03:32:15.112Z,0
2018-11-06T03:33:13.638Z,0
2018-11-06T03:38:34.390Z,0
2018-11-06T03:39:32.917Z,0
2018-11-06T03:40:31.473Z,0
2018-11-06T03:41:30.041Z,0
2018-11-06T03:42:28.537Z,0
2018-11-06T03:43:27.081Z,0
2018-11-06T03:44:25.650Z,0
2018-11-06T03:45:24.428Z,0
2018-11-06T03:46:23.009Z,0
2018-11-06T03:47:21.642Z,0
2018-11-06T03:48:20.235Z,0
2018-11-06T03:49:18.743Z,0
2018-11-06T03:50:17.264Z,0
2018-11-06T03:51:15.897Z,0
2018-11-06T03:52:14.443Z,0
2018-11-06T03:53:13.151Z,0
2018-11-06T03:54:11.724Z,0
2018-11-06T03:55:10.493Z,0
2018-11-06T03:56:09.007Z,0
2018-11-06T03:57:07.732Z,0
2018-11-06T03:58:06.346Z,0
2018-11-06T03:59:04.928Z,0
2018-11-06T04:00:03.560Z,0
2018-11-06T04:01:02.139Z,0
2018-11-06T04:02:00.656Z,0
2018-11-06T04:02:59.224Z,0
2018-11-06T04:03:58.465Z,0
2018-11-06T04:04:56.986Z,0
2018-11-06T04:05:55.708Z,0
2018-11-06T04:06:54.334Z,0
2018-11-06T04:07:52.906Z,0
2018-11-06T04:08:51.459Z,0
2018-11-06T04:09:50.338Z,0
2018-11-06T04:10:48.897Z,0
2018-11-06T04:11:47.372Z,0
2018-11-06T04:12:46.032Z,0
2018-11-06T04:13:44.701Z,0
2018-11-06T04:14:43.269Z,0
2018-11-06T04:15:41.903Z,0
2018-11-06T04:16:40.484Z,0
2018-11-06T04:17:39.088Z,0
2018-11-06T04:18:37.635Z,0
2018-11-06T04:19:36.483Z,0
2018-11-06T04:20:35.125Z,0
2018-11-06T04:21:33.700Z,0
2018-11-06T04:22:32.466Z,0
2018-11-06T04:23:30.948Z,0
2018-11-06T04:24:29.536Z,0
2018-11-06T04:25:28.097Z,0
2018-11-06T04:26:26.665Z,0
2018-11-06T04:27:25.198Z,0
2018-11-06T04:28:23.730Z,0
2018-11-06T04:29:22.703Z,0
2018-11-06T04:30:21.280Z,0
2018-11-06T04:31:19.841Z,0
2018-11-06T04:32:18.541Z,0
2018-11-06T04:33:16.988Z,0
2018-11-06T04:35:57.307Z,0
2018-11-06T04:36:56.023Z,0
2018-11-06T04:37:54.648Z,0
2018-11-06T04:38:53.203Z,0
2018-11-06T04:39:52.552Z,0
2018-11-06T04:40:51.196Z,0
2018-11-06T04:41:49.744Z,0
2018-11-06T04:42:48.428Z,0
2018-11-06T04:43:47.021Z,0
2018-11-06T04:44:45.734Z,0
2018-11-06T04:45:44.268Z,0
2018-11-06T04:46:42.823Z,0
2018-11-06T04:47:41.370Z,0
2018-11-06T04:50:21.828Z,0
2018-11-06T04:51:20.463Z,0
2018-11-06T04:52:19.073Z,0
2018-11-06T04:53:17.790Z,0
2018-11-06T04:54:16.399Z,0
2018-11-06T04:55:14.938Z,0
2018-11-06T04:56:13.559Z,0
2018-11-06T04:57:12.358Z,0
2018-11-06T04:59:19.194Z,0
2018-11-06T05:00:17.727Z,0
2018-11-06T05:01:16.359Z,0
2018-11-06T05:02:15.027Z,0
2018-11-06T05:03:13.536Z,0
2018-11-06T05:04:12.191Z,0
2018-11-06T05:05:11.216Z,0
2018-11-06T05:06:09.858Z,0
2018-11-06T05:10:00.887Z,0
2018-11-06T05:10:58.775Z,0
2018-11-06T05:11:57.398Z,0
2018-11-06T05:12:55.963Z,0
2018-11-06T05:13:54.567Z,0
2018-11-06T05:14:53.030Z,0
2018-11-06T05:15:51.546Z,0
2018-11-06T05:16:50.111Z,0
2018-11-06T05:17:48.638Z,0
2018-11-06T05:18:47.135Z,0
2018-11-06T05:19:45.754Z,0
2018-11-06T05:20:44.364Z,0
2018-11-06T05:21:42.824Z,0
2018-11-06T05:22:41.323Z,0
2018-11-06T05:23:39.925Z,0
2018-11-06T05:24:38.746Z,0
2018-11-06T05:25:37.342Z,0
2018-11-06T05:26:35.875Z,0
2018-11-06T05:27:34.669Z,0
2018-11-06T05:28:33.088Z,0
2018-11-06T05:29:31.694Z,0
2018-11-06T05:30:30.289Z,0
2018-11-06T05:31:28.798Z,0
2018-11-06T05:32:27.372Z,0
2018-11-06T05:33:25.903Z,0
2018-11-06T05:34:24.398Z,0
2018-11-06T05:35:22.940Z,0
2018-11-06T05:36:21.445Z,0
2018-11-06T05:37:19.956Z,0
2018-11-06T05:38:18.499Z,0
2018-11-06T05:39:17.128Z,0
2018-11-06T05:40:15.649Z,0
2018-11-06T05:41:14.570Z,0
2018-11-06T05:42:13.296Z,0
2018-11-06T05:43:11.935Z,0
2018-11-06T05:44:10.525Z,0
2018-11-06T05:45:09.085Z,0
2018-11-06T05:46:07.643Z,0
2018-11-06T05:47:06.205Z,0
2018-11-06T05:48:04.867Z,0
2018-11-06T05:49:03.388Z,0
2018-11-06T05:51:44.002Z,0
2018-11-06T05:52:42.566Z,0
2018-11-06T05:53:41.350Z,0
2018-11-06T05:54:39.832Z,4
2018-11-06T05:55:38.543Z,4
2018-11-06T05:56:37.088Z,0
2018-11-06T05:59:17.468Z,4
2018-11-06T06:00:16.170Z,0
2018-11-06T06:01:14.783Z,4
2018-11-06T06:02:13.317Z,8
2018-11-06T06:03:12.297Z,4
2018-11-06T06:04:10.854Z,8
2018-11-06T06:05:09.345Z,8
2018-11-06T06:06:08.112Z,8
2018-11-06T06:07:06.656Z,8
2018-11-06T06:08:05.248Z,12
2018-11-06T06:09:03.815Z,12
2018-11-06T06:10:02.335Z,16
2018-11-06T06:11:00.989Z,16
2018-11-06T06:11:59.478Z,20
2018-11-06T06:12:58.433Z,20
2018-11-06T06:13:56.944Z,24
2018-11-06T06:16:37.075Z,28
2018-11-06T06:17:35.559Z,28
2018-11-06T06:18:34.200Z,28
2018-11-06T06:19:32.806Z,28
2018-11-06T06:20:31.819Z,28
2018-11-06T06:21:30.949Z,32
2018-11-06T06:22:29.595Z,36
2018-11-06T06:23:28.153Z,36
2018-11-06T06:24:26.777Z,40
2018-11-06T06:45:49.161Z,192
2018-11-06T06:46:47.682Z,204
2018-11-06T06:47:46.393Z,216
2018-11-06T06:48:44.941Z,228
2018-11-06T06:49:43.437Z,236
2018-11-06T06:50:42.051Z,248
2018-11-06T06:51:40.759Z,252
2018-11-06T06:52:39.283Z,276
2018-11-06T06:53:37.897Z,292
2018-11-06T06:54:36.672Z,312
2018-11-06T06:55:35.185Z,328
2018-11-06T06:56:33.880Z,340
2018-11-06T06:57:32.548Z,356
2018-11-06T06:58:31.061Z,372
2018-11-06T06:59:29.719Z,404
2018-11-06T07:00:28.999Z,436
2018-11-06T07:01:27.318Z,484
2018-11-06T07:02:26.225Z,504
2018-11-06T07:03:25.082Z,528
2018-11-06T07:04:23.578Z,552
2018-11-06T07:05:22.120Z,556
2018-11-06T07:06:20.698Z,576
2018-11-06T07:07:19.246Z,624
2018-11-06T07:08:17.710Z,672
2018-11-06T07:09:16.225Z,692
2018-11-06T07:10:14.756Z,732
2018-11-06T07:11:13.359Z,732
2018-11-06T07:12:11.860Z,744
2018-11-06T07:13:10.428Z,776
2018-11-06T07:14:08.925Z,796
2018-11-06T07:15:07.577Z,816
2018-11-06T07:16:06.559Z,856
2018-11-06T07:17:05.177Z,840
2018-11-06T07:18:03.843Z,852
2018-11-06T07:19:02.387Z,896
2018-11-06T07:20:00.889Z,876
2018-11-06T07:20:59.487Z,880
2018-11-06T07:21:58.029Z,844
2018-11-06T07:22:56.558Z,864
2018-11-06T07:23:55.140Z,868
2018-11-06T07:24:53.652Z,804
2018-11-06T07:25:52.509Z,876
2018-11-06T07:26:51.171Z,888
2018-11-06T07:27:49.684Z,852
2018-11-06T07:28:48.583Z,844
2018-11-06T07:29:46.996Z,816
2018-11-06T07:30:45.569Z,736
2018-11-06T07:31:44.084Z,664
2018-11-06T07:32:42.626Z,664
2018-11-06T07:33:41.164Z,724
2018-11-06T07:34:39.809Z,776
2018-11-06T07:35:38.489Z,848
2018-11-06T07:36:36.744Z,872
2018-11-06T07:37:35.303Z,844
2018-11-06T07:38:33.827Z,828
2018-11-06T07:39:32.948Z,848
2018-11-06T07:40:31.587Z,820
2018-11-06T07:41:30.149Z,820
2018-11-06T07:42:28.726Z,812
2018-11-06T07:43:27.336Z,832
2018-11-06T07:44:26.000Z,880
2018-11-06T07:45:24.765Z,900
2018-11-06T07:46:23.282Z,904
2018-11-06T07:47:21.988Z,960
2018-11-06T07:50:20.489Z,1088
2018-11-06T07:51:18.993Z,1132
2018-11-06T07:52:17.537Z,1156
2018-11-06T07:53:16.330Z,1112
2018-11-06T07:54:14.894Z,1132
2018-11-06T07:55:13.393Z,1084
2018-11-06T07:56:12.333Z,1072
2018-11-06T07:57:10.788Z,1096
2018-11-06T07:58:10.297Z,1108
2018-11-06T07:59:08.828Z,1124
2018-11-06T08:00:07.390Z,1108
2018-11-06T08:01:05.917Z,1112
2018-11-06T08:02:04.582Z,1140
2018-11-06T08:03:03.103Z,1136
2018-11-06T08:04:01.710Z,1156
2018-11-06T08:05:00.268Z,1180
2018-11-06T08:05:58.813Z,1212
2018-11-06T08:06:57.287Z,1288
2018-11-06T08:07:55.795Z,1252
2018-11-06T08:08:54.372Z,1232
2018-11-06T08:09:52.888Z,1200
2018-11-06T08:10:51.451Z,1176
2018-11-06T08:11:50.105Z,1176
2018-11-06T08:12:48.708Z,1148
2018-11-06T08:13:47.394Z,1120
2018-11-06T08:17:26.610Z,1176
2018-11-06T08:18:25.247Z,1188
2018-11-06T08:19:24.665Z,1192
2018-11-06T08:20:23.228Z,1164
2018-11-06T08:21:21.788Z,1176
2018-11-06T08:22:20.350Z,1216
2018-11-06T08:23:18.933Z,1232
2018-11-06T08:24:17.441Z,1252
2018-11-06T08:46:46.147Z,1412
2018-11-06T08:47:44.632Z,1400
2018-11-06T08:51:23.664Z,1456
2018-11-06T08:52:22.543Z,1496
2018-11-06T08:53:21.128Z,1500
2018-11-06T08:54:19.757Z,1524
2018-11-06T08:55:18.290Z,1532
2018-11-06T08:56:16.838Z,1552
2018-11-06T08:57:15.346Z,1632
2018-11-06T08:58:13.886Z,1812
2018-11-06T08:59:12.724Z,2000
2018-11-06T09:00:11.300Z,2088
2018-11-06T09:01:09.952Z,2168
2018-11-06T09:02:08.694Z,2120
2018-11-06T09:03:07.173Z,2060
2018-11-06T09:04:05.692Z,2096
2018-11-06T09:05:04.275Z,2136
2018-11-06T09:06:02.787Z,2140
2018-11-06T09:07:01.325Z,2096
2018-11-06T09:07:59.921Z,2048
2018-11-06T09:08:58.591Z,2116
2018-11-06T09:09:57.078Z,2212
2018-11-06T09:10:55.476Z,2228
2018-11-06T09:11:54.031Z,2328
2018-11-06T09:12:52.815Z,2428
2018-11-06T09:13:57.349Z,2504
2018-11-06T09:14:55.969Z,2480
2018-11-06T09:15:54.596Z,2560
2018-11-06T09:16:53.184Z,2636
2018-11-06T09:17:51.707Z,2736
2018-11-06T09:18:50.383Z,2860
2018-11-06T09:19:48.891Z,2952
2018-11-06T09:20:47.430Z,2928
2018-11-06T09:21:46.005Z,3012
2018-11-06T09:22:44.556Z,3204
2018-11-06T09:23:43.141Z,3264
2018-11-06T09:24:41.655Z,3296
2018-11-06T09:25:40.555Z,3360
2018-11-06T09:26:39.098Z,3420
2018-11-06T09:27:37.612Z,3476
2018-11-06T09:28:36.166Z,3520
2018-11-06T09:29:34.692Z,3512
2018-11-06T09:30:33.218Z,3616
2018-11-06T09:31:32.151Z,3624
2018-11-06T09:32:30.819Z,3712
2018-11-06T09:33:29.314Z,3772
2018-11-06T09:34:27.854Z,3788
2018-11-06T09:35:26.556Z,3820
2018-11-06T09:36:25.126Z,3852
2018-11-06T09:37:23.785Z,3876
2018-11-06T09:38:22.425Z,3864
2018-11-06T09:39:21.043Z,3848
2018-11-06T09:40:19.565Z,3860
2018-11-06T09:41:18.269Z,3860
2018-11-06T09:42:16.788Z,3864
2018-11-06T09:43:15.325Z,3900
2018-11-06T09:44:13.933Z,3868
2018-11-06T09:45:12.498Z,3852
2018-11-06T09:46:10.996Z,3876
2018-11-06T09:47:09.484Z,3844
2018-11-06T09:48:08.037Z,3800
2018-11-06T09:49:06.778Z,3804
2018-11-06T09:50:05.236Z,3764
2018-11-06T09:51:03.813Z,3688
2018-11-06T09:52:02.489Z,3672
2018-11-06T09:53:00.901Z,3664
2018-11-06T09:53:59.431Z,3640
2018-11-06T09:54:57.928Z,3644
2018-11-06T09:55:56.555Z,3604
2018-11-06T09:56:55.134Z,3536
2018-11-06T09:57:53.662Z,3516
2018-11-06T09:58:52.265Z,3512
2018-11-06T09:59:50.877Z,3508
2018-11-06T10:00:49.438Z,3524
2018-11-06T10:01:48.076Z,3564
2018-11-06T10:02:46.645Z,3588
2018-11-06T10:03:45.331Z,3508
2018-11-06T10:04:43.878Z,3468
2018-11-06T10:05:42.534Z,3400
2018-11-06T10:06:41.362Z,3388
2018-11-06T10:07:39.898Z,3324
2018-11-06T10:08:38.493Z,3348
2018-11-06T10:09:37.023Z,3448
2018-11-06T10:10:35.600Z,3588
2018-11-06T10:11:34.233Z,3576
2018-11-06T10:12:32.751Z,3488
2018-11-06T10:13:31.308Z,3568
2018-11-06T10:14:29.928Z,3580
2018-11-06T10:15:28.577Z,3484
2018-11-06T10:16:26.966Z,3464
2018-11-06T10:17:25.488Z,3376
2018-11-06T10:18:24.008Z,3376
2018-11-06T10:19:22.536Z,3428
2018-11-06T10:20:21.115Z,3336
2018-11-06T10:21:19.756Z,3212
2018-11-06T10:22:18.161Z,3116
2018-11-06T10:23:16.859Z,3120
2018-11-06T10:24:15.444Z,3004
2018-11-06T10:25:14.060Z,2948
2018-11-06T10:26:12.900Z,2988
2018-11-06T10:27:11.478Z,2920
2018-11-06T10:28:10.060Z,2856
2018-11-06T10:29:08.595Z,2804
2018-11-06T10:30:07.082Z,2772
2018-11-06T10:31:05.580Z,2924
2018-11-06T10:32:04.294Z,2904
2018-11-06T10:33:02.917Z,2956
2018-11-06T10:34:01.490Z,3064
2018-11-06T10:35:00.114Z,3076
2018-11-06T10:35:58.698Z,3200
2018-11-06T10:36:57.288Z,3280
2018-11-06T10:37:55.767Z,3444
2018-11-06T10:38:54.354Z,3532
2018-11-06T10:41:34.692Z,3568
2018-11-06T10:42:33.188Z,3704
2018-11-06T10:43:31.708Z,3728
2018-11-06T10:44:31.112Z,3748
2018-11-06T10:45:29.025Z,3744
2018-11-06T10:46:27.587Z,3808
2018-11-06T10:47:26.321Z,3800
2018-11-06T10:48:25.104Z,3788
2018-11-06T10:51:05.350Z,3760
2018-11-06T10:52:03.856Z,3752
2018-11-06T10:53:02.494Z,3696
2018-11-06T10:54:01.194Z,3600
2018-11-06T10:54:59.732Z,3556
2018-11-06T10:55:58.410Z,3532
2018-11-06T10:56:56.948Z,3608
2018-11-06T10:57:55.496Z,3672
2018-11-06T10:58:54.032Z,3780
2018-11-06T10:59:52.765Z,3824
2018-11-06T11:00:51.342Z,3780
2018-11-06T11:01:49.859Z,3804
2018-11-06T11:02:48.430Z,3804
2018-11-06T11:03:47.053Z,3800
2018-11-06T11:04:45.636Z,3832
2018-11-06T11:05:44.577Z,3868
2018-11-06T11:06:43.161Z,4000
2018-11-06T11:07:41.901Z,3980
2018-11-06T11:08:40.478Z,4000
2018-11-06T11:09:39.117Z,4060
2018-11-06T11:10:37.630Z,4096
2018-11-06T11:11:36.142Z,4132
2018-11-06T11:12:34.871Z,4184
2018-11-06T11:13:33.394Z,4228
2018-11-06T11:14:32.004Z,4228
2018-11-06T11:15:30.654Z,4220
2018-11-06T11:16:29.169Z,4212
2018-11-06T11:17:27.725Z,4220
2018-11-06T11:18:26.305Z,4236
2018-11-06T11:19:24.871Z,4204
2018-11-06T11:20:23.430Z,4196
2018-11-06T11:21:22.146Z,4264
2018-11-06T11:22:20.723Z,4260
2018-11-06T11:23:19.244Z,4308
2018-11-06T11:24:17.870Z,4320
2018-11-06T11:27:16.050Z,4356
2018-11-06T11:29:50.072Z,4324
2018-11-06T11:30:48.799Z,4336
2018-11-06T11:31:47.299Z,4344
2018-11-06T11:32:46.811Z,4336
2018-11-06T11:33:45.368Z,4344
2018-11-06T11:34:43.895Z,4356
2018-11-06T11:35:42.542Z,4372
2018-11-06T11:36:40.985Z,4372
2018-11-06T11:37:39.504Z,4388
2018-11-06T11:38:37.977Z,4408
2018-11-06T11:39:36.487Z,4436
2018-11-06T11:40:35.003Z,4468
2018-11-06T11:41:33.636Z,4464
2018-11-06T11:42:32.287Z,4444
2018-11-06T11:43:31.001Z,4428
2018-11-06T11:44:29.429Z,4436
2018-11-06T11:45:28.095Z,4460
2018-11-06T11:46:26.749Z,4460
2018-11-06T11:47:25.299Z,4452
2018-11-06T11:48:23.825Z,4440
2018-11-06T11:49:22.384Z,4444
2018-11-06T11:50:21.059Z,4444
2018-11-06T11:51:19.693Z,4448
2018-11-06T11:52:18.281Z,4432
2018-11-06T11:53:16.829Z,4424
2018-11-06T11:54:15.351Z,4424
2018-11-06T11:55:13.874Z,4432
2018-11-06T11:56:12.395Z,4424
2018-11-06T11:57:10.944Z,4384
2018-11-06T11:59:26.890Z,4424
2018-11-06T12:00:25.377Z,4428
2018-11-06T12:01:24.006Z,4420
2018-11-06T12:02:23.010Z,4400
2018-11-06T12:03:21.306Z,4392
2018-11-06T12:04:19.890Z,4376
2018-11-06T12:05:18.444Z,4372
2018-11-06T12:06:16.963Z,4364
2018-11-06T12:07:15.527Z,4384
2018-11-06T12:08:14.079Z,4412
2018-11-06T12:09:12.627Z,4424
2018-11-06T12:10:11.192Z,4420
2018-11-06T12:11:09.734Z,4436
2018-11-06T12:12:08.358Z,4456
2018-11-06T12:13:06.930Z,4476
2018-11-06T12:14:05.500Z,4472
2018-11-06T12:15:04.044Z,4448
2018-11-06T12:16:02.657Z,4400
2018-11-06T12:17:01.220Z,4376
2018-11-06T12:17:59.757Z,4364
2018-11-06T12:18:58.395Z,4372
2018-11-06T12:19:57.137Z,4372
2018-11-06T12:20:55.619Z,4372
2018-11-06T12:21:54.244Z,4348
2018-11-06T12:22:52.871Z,4328
2018-11-06T12:23:51.404Z,4360
2018-11-06T12:27:30.062Z,4272
2018-11-06T12:28:28.634Z,4224
2018-11-06T12:29:27.147Z,4192
2018-11-06T12:30:25.682Z,4160
2018-11-06T12:31:24.240Z,4124
2018-11-06T12:32:22.852Z,4100
2018-11-06T12:33:21.346Z,4088
2018-11-06T12:34:19.889Z,4076
2018-11-06T12:35:18.540Z,4016
2018-11-06T12:36:17.090Z,3980
2018-11-06T12:37:15.597Z,3936
2018-11-06T12:38:14.543Z,3860
2018-11-06T12:39:13.093Z,3824
2018-11-06T12:40:11.674Z,3792
2018-11-06T12:41:10.299Z,3744
2018-11-06T12:42:09.131Z,3744
2018-11-06T12:43:07.656Z,3700
2018-11-06T12:44:06.536Z,3664
2018-11-06T12:45:05.146Z,3656
2018-11-06T12:46:03.670Z,3596
2018-11-06T12:47:02.248Z,3544
2018-11-06T12:48:00.866Z,3516
2018-11-06T12:48:59.395Z,3472
2018-11-06T12:49:57.932Z,3448
2018-11-06T12:50:56.748Z,3444
2018-11-06T12:51:55.252Z,3420
2018-11-06T12:52:53.806Z,3400
2018-11-06T12:53:52.576Z,3380
2018-11-06T12:54:51.093Z,3364
2018-11-06T12:55:49.646Z,3404
2018-11-06T12:56:48.234Z,3428
2018-11-06T12:57:46.765Z,3412
2018-11-06T12:58:45.271Z,3412
2018-11-06T12:59:43.805Z,3416
2018-11-06T13:00:42.316Z,3412
2018-11-06T13:03:22.656Z,3356
2018-11-06T13:04:21.228Z,3312
2018-11-06T13:05:20.351Z,3260
2018-11-06T13:06:18.921Z,3272
2018-11-06T13:07:17.432Z,3232
2018-11-06T13:08:15.989Z,3200
2018-11-06T13:10:56.413Z,3136
2018-11-06T13:11:55.037Z,3104
2018-11-06T13:12:53.518Z,3068
2018-11-06T13:16:14.688Z,3020
2018-11-06T13:17:13.289Z,2992
2018-11-06T13:18:11.778Z,2960
2018-11-06T13:19:10.290Z,2924
2018-11-06T13:20:08.795Z,2896
2018-11-06T13:39:09.974Z,2604
2018-11-06T13:40:08.437Z,2596
2018-11-06T13:41:07.022Z,2576
2018-11-06T13:42:05.567Z,2540
2018-11-06T13:43:04.076Z,2516
2018-11-06T13:44:02.761Z,2492
2018-11-06T13:45:01.308Z,2464
2018-11-06T13:45:59.622Z,2444
2018-11-06T13:46:58.193Z,2420
2018-11-06T13:47:56.720Z,2384
2018-11-06T13:48:55.259Z,2356
2018-11-06T13:49:53.737Z,2332
2018-11-06T13:50:52.468Z,2308
2018-11-06T13:51:51.077Z,2276
2018-11-06T13:52:49.631Z,2244
2018-11-06T13:53:48.332Z,2220
2018-11-06T13:54:47.036Z,2200
2018-11-06T13:55:45.563Z,2188
2018-11-06T13:56:44.236Z,2180
2018-11-06T13:57:42.805Z,2168
2018-11-06T13:58:41.354Z,2144
2018-11-06T13:59:39.993Z,2128
2018-11-06T14:00:39.098Z,2116
2018-11-06T14:01:37.617Z,2092
2018-11-06T14:02:36.528Z,2064
2018-11-06T14:03:35.014Z,2044
2018-11-06T14:04:33.567Z,2032
2018-11-06T14:05:32.654Z,2028
2018-11-06T14:06:31.180Z,2020
2018-11-06T14:07:29.923Z,2008
2018-11-06T14:08:29.373Z,1996
2018-11-06T14:09:28.583Z,1980
2018-11-06T14:10:27.179Z,1968
2018-11-06T14:11:25.800Z,1956
2018-11-06T14:12:24.794Z,1936
2018-11-06T14:13:23.104Z,1924
2018-11-06T14:14:22.191Z,1916
2018-11-06T14:15:21.127Z,1904
2018-11-06T14:16:20.180Z,1888
2018-11-06T14:17:18.854Z,1876
2018-11-06T14:18:17.963Z,1868
2018-11-06T14:19:16.856Z,1852
2018-11-06T14:20:15.403Z,1832
2018-11-06T14:21:14.143Z,1784
2018-11-06T14:22:13.763Z,1692
2018-11-06T14:23:14.017Z,1608
2018-11-06T14:24:13.041Z,1508
2018-11-06T14:25:11.450Z,1436
2018-11-06T14:26:10.197Z,1416
2018-11-06T14:27:08.969Z,1420
2018-11-06T14:28:08.051Z,1348
2018-11-06T14:29:05.999Z,1252
2018-11-06T14:30:04.510Z,1164
2018-11-06T14:31:03.112Z,1060
2018-11-06T14:32:01.868Z,960
2018-11-06T14:33:00.897Z,908
2018-11-06T14:33:59.904Z,840
2018-11-06T14:35:00.088Z,780
2018-11-06T14:35:58.770Z,724
2018-11-06T14:36:57.412Z,676
2018-11-06T14:37:56.400Z,624
2018-11-06T14:38:55.157Z,592
2018-11-06T14:39:53.607Z,588
2018-11-06T14:40:52.350Z,584
2018-11-06T14:41:50.773Z,540
2018-11-06T14:42:49.401Z,508
2018-11-06T14:43:47.824Z,496
2018-11-06T14:44:46.342Z,528
2018-11-06T14:45:45.182Z,540
2018-11-06T14:46:44.173Z,544
2018-11-06T14:47:42.794Z,540
2018-11-06T14:48:41.792Z,512
2018-11-06T14:49:40.500Z,472
2018-11-06T14:50:39.289Z,436
2018-11-06T14:51:37.770Z,400
2018-11-06T14:52:36.523Z,400
2018-11-06T14:53:35.170Z,384
2018-11-06T14:54:33.767Z,360
2018-11-06T14:55:32.714Z,348
2018-11-06T14:56:31.316Z,328
2018-11-06T14:57:29.819Z,316
2018-11-06T14:58:29.388Z,296
2018-11-06T14:59:28.404Z,292
2018-11-06T15:00:26.926Z,284
2018-11-06T15:01:25.587Z,276
2018-11-06T15:02:24.580Z,272
2018-11-06T15:03:23.251Z,272
2018-11-06T15:04:21.834Z,252
2018-11-06T15:05:21.261Z,244
2018-11-06T15:06:19.801Z,240
2018-11-06T15:07:18.592Z,236
2018-11-06T15:08:17.809Z,228
2018-11-06T15:09:17.507Z,232
2018-11-06T15:10:15.883Z,228
2018-11-06T15:11:14.648Z,192
2018-11-06T15:12:13.342Z,188
2018-11-06T15:13:13.068Z,172
2018-11-06T15:14:11.306Z,164
2018-11-06T15:15:10.057Z,172
2018-11-06T15:16:09.583Z,160
2018-11-06T15:17:07.505Z,160
2018-11-06T15:18:06.190Z,148
2018-11-06T15:19:04.829Z,148
2018-11-06T15:20:03.566Z,148
2018-11-06T15:21:02.139Z,148
2018-11-06T15:22:00.708Z,160
2018-11-06T15:22:59.430Z,164
2018-11-06T15:23:58.008Z,184
2018-11-06T15:24:57.121Z,180
2018-11-06T15:25:57.407Z,176
2018-11-06T15:26:55.826Z,144
2018-11-06T15:27:55.283Z,172
2018-11-06T15:28:53.879Z,180
2018-11-06T15:29:52.698Z,168
2018-11-06T15:30:51.833Z,156
2018-11-06T15:31:51.027Z,136
2018-11-06T15:32:49.677Z,136
2018-11-06T15:33:49.575Z,128
2018-11-06T15:34:47.722Z,120
2018-11-06T15:35:46.331Z,112
2018-11-06T15:36:44.962Z,108
2018-11-06T15:37:44.400Z,112
2018-11-06T15:38:42.997Z,116
2018-11-06T15:39:42.931Z,112
2018-11-06T15:40:41.991Z,116
2018-11-06T15:41:40.847Z,108
2018-11-06T15:42:44.034Z,104
2018-11-06T15:43:42.716Z,104
2018-11-06T15:44:41.582Z,92
2018-11-06T15:47:23.952Z,80
2018-11-06T15:48:23.536Z,80
2018-11-06T15:49:21.994Z,80
2018-11-06T15:50:20.540Z,76
2018-11-06T15:51:19.849Z,60
2018-11-06T15:52:20.333Z,52
2018-11-06T15:53:24.693Z,44
2018-11-06T15:54:24.618Z,36
2018-11-06T15:55:23.041Z,36
2018-11-06T15:56:22.535Z,32
2018-11-06T15:57:22.097Z,28
2018-11-06T15:58:24.962Z,28
2018-11-06T15:59:23.445Z,24
2018-11-06T16:00:21.977Z,24
2018-11-06T16:01:20.597Z,20
2018-11-06T16:02:19.594Z,20
2018-11-06T16:03:20.961Z,20